sensor_id;sensor_type;location;lat;lon;timestamp;temperature;humidity
17632;DHT22;8934;51.194;17.150;2023-02-04T00:01:05;4.50;99.90
17632;DHT22;8934;51.194;17.150;2023-02-04T00:03:54;4.40;99.90
17632;DHT22;8934;51.194;17.150;2023-02-04T00:06:41;4.30;99.90
17632;DHT22;8934;51.194;17.150;2023-02-04T00:09:29;4.30;99.90
17632;DHT22;8934;51.194;17.150;2023-02-04T00:12:16;4.20;99.90
17632;DHT22;8934;51.194;17.150;2023-02-04T00:15:05;4.20;99.90
17632;DHT22;8934;51.194;17.150;2023-02-04T00:17:53;4.10;99.90
17632;DHT22;8934;51.194;17.150;2023-02-04T00:20:41;4.00;99.90
17632;DHT22;8934;51.194;17.150;2023-02-04T00:23:29;4.00;99.90
17632;DHT22;8934;51.194;17.150;2023-02-04T00:26:16;3.90;99.90
17632;DHT22;8934;51.194;17.150;2023-02-04T00:29:04;3.90;99.90
17632;DHT22;8934;51.194;17.150;2023-02-04T00:31:51;3.90;99.90
17632;DHT22;8934;51.194;17.150;2023-02-04T00:34:39;3.90;99.90
17632;DHT22;8934;51.194;17.150;2023-02-04T00:37:28;3.90;99.90
17632;DHT22;8934;51.194;17.150;2023-02-04T00:40:16;3.80;99.90
17632;DHT22;8934;51.194;17.150;2023-02-04T00:43:04;3.80;99.90
17632;DHT22;8934;51.194;17.150;2023-02-04T00:45:51;3.70;99.90
17632;DHT22;8934;51.194;17.150;2023-02-04T00:48:39;3.70;99.90
17632;DHT22;8934;51.194;17.150;2023-02-04T00:51:26;3.60;99.90
17632;DHT22;8934;51.194;17.150;2023-02-04T00:54:15;3.60;99.90
17632;DHT22;8934;51.194;17.150;2023-02-04T00:57:04;3.50;99.90
17632;DHT22;8934;51.194;17.150;2023-02-04T00:59:52;3.40;99.90
17632;DHT22;8934;51.194;17.150;2023-02-04T01:02:40;3.30;99.90
17632;DHT22;8934;51.194;17.150;2023-02-04T01:05:27;3.20;99.90
17632;DHT22;8934;51.194;17.150;2023-02-04T01:08:15;3.10;99.90
17632;DHT22;8934;51.194;17.150;2023-02-04T01:11:05;3.10;99.90
17632;DHT22;8934;51.194;17.150;2023-02-04T01:13:53;3.10;99.90
17632;DHT22;8934;51.194;17.150;2023-02-04T01:16:40;3.00;99.90
17632;DHT22;8934;51.194;17.150;2023-02-04T01:19:28;3.00;99.90
17632;DHT22;8934;51.194;17.150;2023-02-04T01:22:15;3.00;99.90
17632;DHT22;8934;51.194;17.150;2023-02-04T01:25:04;3.00;99.90
17632;DHT22;8934;51.194;17.150;2023-02-04T01:28:02;2.90;99.90
17632;DHT22;8934;51.194;17.150;2023-02-04T01:30:50;2.90;99.90
17632;DHT22;8934;51.194;17.150;2023-02-04T01:33:39;2.80;99.90
17632;DHT22;8934;51.194;17.150;2023-02-04T01:36:27;2.70;99.90
17632;DHT22;8934;51.194;17.150;2023-02-04T01:39:15;2.40;99.90
17632;DHT22;8934;51.194;17.150;2023-02-04T01:42:05;2.10;99.90
17632;DHT22;8934;51.194;17.150;2023-02-04T01:44:54;1.90;99.90
17632;DHT22;8934;51.194;17.150;2023-02-04T01:47:42;1.80;99.90
17632;DHT22;8934;51.194;17.150;2023-02-04T01:50:30;1.70;99.90
17632;DHT22;8934;51.194;17.150;2023-02-04T01:53:21;1.60;99.90
17632;DHT22;8934;51.194;17.150;2023-02-04T01:56:15;1.50;99.90
17632;DHT22;8934;51.194;17.150;2023-02-04T01:59:10;1.40;99.90
17632;DHT22;8934;51.194;17.150;2023-02-04T02:01:59;1.40;99.90
17632;DHT22;8934;51.194;17.150;2023-02-04T02:04:47;1.30;99.90
17632;DHT22;8934;51.194;17.150;2023-02-04T02:07:34;1.30;99.90
17632;DHT22;8934;51.194;17.150;2023-02-04T02:10:23;1.30;99.90
17632;DHT22;8934;51.194;17.150;2023-02-04T02:13:12;1.30;99.90
17632;DHT22;8934;51.194;17.150;2023-02-04T02:16:01;1.20;99.90
17632;DHT22;8934;51.194;17.150;2023-02-04T02:18:50;1.20;99.90
17632;DHT22;8934;51.194;17.150;2023-02-04T02:21:44;1.20;99.90
17632;DHT22;8934;51.194;17.150;2023-02-04T02:24:35;1.20;99.90
17632;DHT22;8934;51.194;17.150;2023-02-04T02:27:23;1.20;99.90
17632;DHT22;8934;51.194;17.150;2023-02-04T02:30:11;1.10;99.90
17632;DHT22;8934;51.194;17.150;2023-02-04T02:33:03;1.10;99.90
17632;DHT22;8934;51.194;17.150;2023-02-04T02:35:51;1.10;99.90
17632;DHT22;8934;51.194;17.150;2023-02-04T02:38:39;1.10;99.90
17632;DHT22;8934;51.194;17.150;2023-02-04T02:41:28;1.10;99.90
17632;DHT22;8934;51.194;17.150;2023-02-04T02:44:17;1.10;99.90
17632;DHT22;8934;51.194;17.150;2023-02-04T02:47:05;1.00;99.90
17632;DHT22;8934;51.194;17.150;2023-02-04T02:49:53;1.00;99.90
17632;DHT22;8934;51.194;17.150;2023-02-04T02:52:41;1.00;99.90
17632;DHT22;8934;51.194;17.150;2023-02-04T02:55:29;1.10;99.90
17632;DHT22;8934;51.194;17.150;2023-02-04T02:58:22;1.00;99.90
17632;DHT22;8934;51.194;17.150;2023-02-04T03:01:10;1.00;99.90
17632;DHT22;8934;51.194;17.150;2023-02-04T03:03:58;1.00;99.90
17632;DHT22;8934;51.194;17.150;2023-02-04T03:06:45;1.00;99.90
17632;DHT22;8934;51.194;17.150;2023-02-04T03:09:33;1.00;99.90
17632;DHT22;8934;51.194;17.150;2023-02-04T03:12:22;1.00;99.90
17632;DHT22;8934;51.194;17.150;2023-02-04T03:15:11;1.00;99.90
17632;DHT22;8934;51.194;17.150;2023-02-04T03:17:59;1.00;99.90
17632;DHT22;8934;51.194;17.150;2023-02-04T03:20:48;1.00;99.90
17632;DHT22;8934;51.194;17.150;2023-02-04T03:23:37;0.90;99.90
17632;DHT22;8934;51.194;17.150;2023-02-04T03:26:26;0.90;99.90
17632;DHT22;8934;51.194;17.150;2023-02-04T03:29:13;0.80;99.90
17632;DHT22;8934;51.194;17.150;2023-02-04T03:32:03;0.80;99.90
17632;DHT22;8934;51.194;17.150;2023-02-04T03:34:51;0.70;99.90
17632;DHT22;8934;51.194;17.150;2023-02-04T03:37:41;0.80;99.90
17632;DHT22;8934;51.194;17.150;2023-02-04T03:40:29;0.70;99.90
17632;DHT22;8934;51.194;17.150;2023-02-04T03:43:17;0.70;99.90
17632;DHT22;8934;51.194;17.150;2023-02-04T03:46:05;0.70;99.90
17632;DHT22;8934;51.194;17.150;2023-02-04T03:48:53;0.60;99.90
17632;DHT22;8934;51.194;17.150;2023-02-04T03:51:41;0.60;99.90
17632;DHT22;8934;51.194;17.150;2023-02-04T03:54:28;0.60;99.90
17632;DHT22;8934;51.194;17.150;2023-02-04T03:57:16;0.60;99.90
17632;DHT22;8934;51.194;17.150;2023-02-04T04:00:04;0.70;99.90
17632;DHT22;8934;51.194;17.150;2023-02-04T04:02:57;0.70;99.90
17632;DHT22;8934;51.194;17.150;2023-02-04T04:05:46;0.60;99.90
17632;DHT22;8934;51.194;17.150;2023-02-04T04:08:34;0.60;99.90
17632;DHT22;8934;51.194;17.150;2023-02-04T04:11:21;0.70;99.90
17632;DHT22;8934;51.194;17.150;2023-02-04T04:14:08;0.60;99.90
17632;DHT22;8934;51.194;17.150;2023-02-04T04:16:56;0.60;99.90
17632;DHT22;8934;51.194;17.150;2023-02-04T04:19:43;0.60;99.90
17632;DHT22;8934;51.194;17.150;2023-02-04T04:22:32;0.70;99.90
17632;DHT22;8934;51.194;17.150;2023-02-04T04:25:20;0.60;99.90
17632;DHT22;8934;51.194;17.150;2023-02-04T04:28:07;0.60;99.90
17632;DHT22;8934;51.194;17.150;2023-02-04T04:30:55;0.70;99.90
17632;DHT22;8934;51.194;17.150;2023-02-04T04:33:42;0.70;99.90
17632;DHT22;8934;51.194;17.150;2023-02-04T04:36:30;0.60;99.90
17632;DHT22;8934;51.194;17.150;2023-02-04T04:39:19;0.70;99.90
17632;DHT22;8934;51.194;17.150;2023-02-04T04:42:07;0.60;99.90
17632;DHT22;8934;51.194;17.150;2023-02-04T04:44:54;0.60;99.90
17632;DHT22;8934;51.194;17.150;2023-02-04T04:47:42;0.60;99.90
17632;DHT22;8934;51.194;17.150;2023-02-04T04:50:30;0.60;99.90
17632;DHT22;8934;51.194;17.150;2023-02-04T04:53:18;0.60;99.90
17632;DHT22;8934;51.194;17.150;2023-02-04T04:56:07;0.60;99.90
17632;DHT22;8934;51.194;17.150;2023-02-04T04:58:54;0.60;99.90
17632;DHT22;8934;51.194;17.150;2023-02-04T05:01:41;0.60;99.90
17632;DHT22;8934;51.194;17.150;2023-02-04T05:04:29;0.60;99.90
17632;DHT22;8934;51.194;17.150;2023-02-04T05:07:16;0.50;99.90
17632;DHT22;8934;51.194;17.150;2023-02-04T05:10:04;0.50;99.90
17632;DHT22;8934;51.194;17.150;2023-02-04T05:12:53;0.60;99.90
17632;DHT22;8934;51.194;17.150;2023-02-04T05:15:41;0.50;99.90
17632;DHT22;8934;51.194;17.150;2023-02-04T05:18:28;0.50;99.90
17632;DHT22;8934;51.194;17.150;2023-02-04T05:21:16;0.50;99.90
17632;DHT22;8934;51.194;17.150;2023-02-04T05:24:03;0.50;99.90
17632;DHT22;8934;51.194;17.150;2023-02-04T05:26:51;0.50;99.90
17632;DHT22;8934;51.194;17.150;2023-02-04T05:29:40;0.50;99.90
17632;DHT22;8934;51.194;17.150;2023-02-04T05:32:28;0.50;99.90
17632;DHT22;8934;51.194;17.150;2023-02-04T05:35:15;0.50;99.90
17632;DHT22;8934;51.194;17.150;2023-02-04T05:38:03;0.50;99.90
17632;DHT22;8934;51.194;17.150;2023-02-04T05:40:50;0.50;99.90
17632;DHT22;8934;51.194;17.150;2023-02-04T05:43:38;0.50;99.90
17632;DHT22;8934;51.194;17.150;2023-02-04T05:46:27;0.50;99.90
17632;DHT22;8934;51.194;17.150;2023-02-04T05:49:14;0.40;99.90
17632;DHT22;8934;51.194;17.150;2023-02-04T05:52:02;0.40;99.90
17632;DHT22;8934;51.194;17.150;2023-02-04T05:54:49;0.40;99.90
17632;DHT22;8934;51.194;17.150;2023-02-04T05:57:37;0.30;99.90
17632;DHT22;8934;51.194;17.150;2023-02-04T06:00:25;0.30;99.90
17632;DHT22;8934;51.194;17.150;2023-02-04T06:03:14;0.30;99.90
17632;DHT22;8934;51.194;17.150;2023-02-04T06:06:05;0.30;99.90
17632;DHT22;8934;51.194;17.150;2023-02-04T06:08:53;0.30;99.90
17632;DHT22;8934;51.194;17.150;2023-02-04T06:11:40;0.20;99.90
17632;DHT22;8934;51.194;17.150;2023-02-04T06:14:28;0.20;99.90
17632;DHT22;8934;51.194;17.150;2023-02-04T06:17:16;0.10;99.90
17632;DHT22;8934;51.194;17.150;2023-02-04T06:20:06;0.10;99.90
17632;DHT22;8934;51.194;17.150;2023-02-04T06:22:53;0.10;99.90
17632;DHT22;8934;51.194;17.150;2023-02-04T06:25:41;0.10;99.90
17632;DHT22;8934;51.194;17.150;2023-02-04T06:28:28;0.10;99.90
17632;DHT22;8934;51.194;17.150;2023-02-04T06:31:16;0.00;99.90
17632;DHT22;8934;51.194;17.150;2023-02-04T06:34:04;0.00;99.90
17632;DHT22;8934;51.194;17.150;2023-02-04T06:36:53;0.00;99.90
17632;DHT22;8934;51.194;17.150;2023-02-04T06:39:41;0.10;99.90
17632;DHT22;8934;51.194;17.150;2023-02-04T06:42:29;0.00;99.90
17632;DHT22;8934;51.194;17.150;2023-02-04T06:45:16;0.10;99.90
17632;DHT22;8934;51.194;17.150;2023-02-04T06:48:04;0.10;99.90
17632;DHT22;8934;51.194;17.150;2023-02-04T06:50:51;0.10;99.90
17632;DHT22;8934;51.194;17.150;2023-02-04T06:53:41;0.10;99.90
17632;DHT22;8934;51.194;17.150;2023-02-04T06:56:29;0.10;99.90
17632;DHT22;8934;51.194;17.150;2023-02-04T06:59:16;0.10;99.90
17632;DHT22;8934;51.194;17.150;2023-02-04T07:02:05;0.10;99.90
17632;DHT22;8934;51.194;17.150;2023-02-04T07:04:53;0.10;99.90
17632;DHT22;8934;51.194;17.150;2023-02-04T07:07:40;0.10;99.90
17632;DHT22;8934;51.194;17.150;2023-02-04T07:10:29;0.10;99.90
17632;DHT22;8934;51.194;17.150;2023-02-04T07:13:18;0.10;99.90
17632;DHT22;8934;51.194;17.150;2023-02-04T07:16:06;0.10;99.90
17632;DHT22;8934;51.194;17.150;2023-02-04T07:18:54;0.20;99.90
17632;DHT22;8934;51.194;17.150;2023-02-04T07:21:41;0.20;99.90
17632;DHT22;8934;51.194;17.150;2023-02-04T07:24:29;0.20;99.90
17632;DHT22;8934;51.194;17.150;2023-02-04T07:27:18;0.20;99.90
17632;DHT22;8934;51.194;17.150;2023-02-04T07:30:07;0.20;99.90
17632;DHT22;8934;51.194;17.150;2023-02-04T07:32:55;0.20;99.90
17632;DHT22;8934;51.194;17.150;2023-02-04T07:35:42;0.20;99.90
17632;DHT22;8934;51.194;17.150;2023-02-04T07:38:30;0.30;99.90
17632;DHT22;8934;51.194;17.150;2023-02-04T07:41:18;0.30;99.90
17632;DHT22;8934;51.194;17.150;2023-02-04T07:44:07;0.20;99.90
17632;DHT22;8934;51.194;17.150;2023-02-04T07:46:55;0.20;99.90
17632;DHT22;8934;51.194;17.150;2023-02-04T07:49:43;0.20;99.90
17632;DHT22;8934;51.194;17.150;2023-02-04T07:52:30;0.20;99.90
17632;DHT22;8934;51.194;17.150;2023-02-04T07:55:17;0.20;99.90
17632;DHT22;8934;51.194;17.150;2023-02-04T07:58:05;0.30;99.90
17632;DHT22;8934;51.194;17.150;2023-02-04T08:00:54;0.30;99.90
17632;DHT22;8934;51.194;17.150;2023-02-04T08:03:42;0.40;99.90
17632;DHT22;8934;51.194;17.150;2023-02-04T08:06:30;0.50;99.90
17632;DHT22;8934;51.194;17.150;2023-02-04T08:09:17;0.60;99.90
17632;DHT22;8934;51.194;17.150;2023-02-04T08:12:05;0.60;99.90
17632;DHT22;8934;51.194;17.150;2023-02-04T08:14:52;0.70;99.90
17632;DHT22;8934;51.194;17.150;2023-02-04T08:17:41;0.70;99.90
17632;DHT22;8934;51.194;17.150;2023-02-04T08:20:29;0.90;99.90
17632;DHT22;8934;51.194;17.150;2023-02-04T08:23:17;1.00;99.90
17632;DHT22;8934;51.194;17.150;2023-02-04T08:26:05;1.10;99.90
17632;DHT22;8934;51.194;17.150;2023-02-04T08:28:53;1.20;99.90
17632;DHT22;8934;51.194;17.150;2023-02-04T08:31:41;1.20;99.90
17632;DHT22;8934;51.194;17.150;2023-02-04T08:34:31;1.20;99.90
17632;DHT22;8934;51.194;17.150;2023-02-04T08:37:19;1.20;99.90
17632;DHT22;8934;51.194;17.150;2023-02-04T08:40:07;1.20;99.90
17632;DHT22;8934;51.194;17.150;2023-02-04T08:42:55;1.30;99.90
17632;DHT22;8934;51.194;17.150;2023-02-04T08:45:42;1.40;99.90
17632;DHT22;8934;51.194;17.150;2023-02-04T08:48:30;1.50;99.90
17632;DHT22;8934;51.194;17.150;2023-02-04T08:51:19;1.70;99.90
17632;DHT22;8934;51.194;17.150;2023-02-04T08:54:06;1.80;99.90
17632;DHT22;8934;51.194;17.150;2023-02-04T08:56:53;1.70;99.90
17632;DHT22;8934;51.194;17.150;2023-02-04T08:59:41;1.70;99.90
17632;DHT22;8934;51.194;17.150;2023-02-04T09:02:30;1.60;99.90
17632;DHT22;8934;51.194;17.150;2023-02-04T09:05:17;1.60;99.90
17632;DHT22;8934;51.194;17.150;2023-02-04T09:08:06;1.70;99.90
17632;DHT22;8934;51.194;17.150;2023-02-04T09:10:57;1.70;99.90
17632;DHT22;8934;51.194;17.150;2023-02-04T09:13:45;1.60;99.90
17632;DHT22;8934;51.194;17.150;2023-02-04T09:16:32;1.60;99.90
17632;DHT22;8934;51.194;17.150;2023-02-04T09:19:20;1.60;99.90
17632;DHT22;8934;51.194;17.150;2023-02-04T09:22:10;1.60;99.90
17632;DHT22;8934;51.194;17.150;2023-02-04T09:25:00;1.60;99.90
17632;DHT22;8934;51.194;17.150;2023-02-04T09:27:47;1.70;99.90
17632;DHT22;8934;51.194;17.150;2023-02-04T09:30:35;1.70;99.90
17632;DHT22;8934;51.194;17.150;2023-02-04T09:33:23;1.60;99.90
17632;DHT22;8934;51.194;17.150;2023-02-04T09:36:10;1.60;99.90
17632;DHT22;8934;51.194;17.150;2023-02-04T09:38:58;1.60;99.90
17632;DHT22;8934;51.194;17.150;2023-02-04T09:41:47;1.50;99.90
17632;DHT22;8934;51.194;17.150;2023-02-04T09:44:35;1.60;99.90
17632;DHT22;8934;51.194;17.150;2023-02-04T09:47:24;1.60;99.90
17632;DHT22;8934;51.194;17.150;2023-02-04T09:50:14;1.50;99.90
17632;DHT22;8934;51.194;17.150;2023-02-04T09:53:03;1.50;99.90
17632;DHT22;8934;51.194;17.150;2023-02-04T09:55:51;1.50;99.90
17632;DHT22;8934;51.194;17.150;2023-02-04T09:58:41;1.40;99.90
17632;DHT22;8934;51.194;17.150;2023-02-04T10:01:29;1.40;99.90
17632;DHT22;8934;51.194;17.150;2023-02-04T10:04:17;1.40;99.90
17632;DHT22;8934;51.194;17.150;2023-02-04T10:07:09;1.50;99.90
17632;DHT22;8934;51.194;17.150;2023-02-04T10:09:58;1.50;99.90
17632;DHT22;8934;51.194;17.150;2023-02-04T10:12:46;1.50;99.90
17632;DHT22;8934;51.194;17.150;2023-02-04T10:15:36;1.60;99.90
17632;DHT22;8934;51.194;17.150;2023-02-04T10:18:26;1.60;99.90
17632;DHT22;8934;51.194;17.150;2023-02-04T10:21:18;1.60;99.90
17632;DHT22;8934;51.194;17.150;2023-02-04T10:24:13;1.60;99.90
17632;DHT22;8934;51.194;17.150;2023-02-04T10:27:08;1.70;99.90
17632;DHT22;8934;51.194;17.150;2023-02-04T10:29:57;1.70;99.90
17632;DHT22;8934;51.194;17.150;2023-02-04T10:32:46;1.90;99.90
17632;DHT22;8934;51.194;17.150;2023-02-04T10:35:44;2.00;99.90
17632;DHT22;8934;51.194;17.150;2023-02-04T10:38:31;2.00;99.90
17632;DHT22;8934;51.194;17.150;2023-02-04T10:41:19;2.00;99.90
17632;DHT22;8934;51.194;17.150;2023-02-04T10:44:09;2.10;99.90
17632;DHT22;8934;51.194;17.150;2023-02-04T10:46:58;2.20;99.90
17632;DHT22;8934;51.194;17.150;2023-02-04T10:49:59;2.30;99.90
17632;DHT22;8934;51.194;17.150;2023-02-04T10:52:51;2.40;99.90
17632;DHT22;8934;51.194;17.150;2023-02-04T10:55:40;2.50;99.90
17632;DHT22;8934;51.194;17.150;2023-02-04T10:58:30;2.40;99.90
17632;DHT22;8934;51.194;17.150;2023-02-04T11:01:18;2.50;99.90
17632;DHT22;8934;51.194;17.150;2023-02-04T11:04:08;2.60;99.90
17632;DHT22;8934;51.194;17.150;2023-02-04T11:06:58;2.70;99.90
17632;DHT22;8934;51.194;17.150;2023-02-04T11:09:46;2.90;99.90
17632;DHT22;8934;51.194;17.150;2023-02-04T11:12:40;3.00;99.90
17632;DHT22;8934;51.194;17.150;2023-02-04T11:15:40;3.00;99.90
17632;DHT22;8934;51.194;17.150;2023-02-04T11:18:29;2.70;99.90
17632;DHT22;8934;51.194;17.150;2023-02-04T11:21:23;2.50;99.90
17632;DHT22;8934;51.194;17.150;2023-02-04T11:24:24;2.40;99.90
17632;DHT22;8934;51.194;17.150;2023-02-04T11:27:20;2.30;99.90
17632;DHT22;8934;51.194;17.150;2023-02-04T11:30:21;2.20;99.90
17632;DHT22;8934;51.194;17.150;2023-02-04T11:33:23;2.20;99.90
17632;DHT22;8934;51.194;17.150;2023-02-04T11:36:12;2.20;99.90
17632;DHT22;8934;51.194;17.150;2023-02-04T11:39:06;2.10;99.90
17632;DHT22;8934;51.194;17.150;2023-02-04T11:41:57;2.00;99.90
17632;DHT22;8934;51.194;17.150;2023-02-04T11:44:50;2.00;99.90
17632;DHT22;8934;51.194;17.150;2023-02-04T11:47:38;2.00;99.90
17632;DHT22;8934;51.194;17.150;2023-02-04T11:50:29;2.10;99.90
17632;DHT22;8934;51.194;17.150;2023-02-04T11:53:17;2.10;99.90
17632;DHT22;8934;51.194;17.150;2023-02-04T11:56:04;2.30;99.90
17632;DHT22;8934;51.194;17.150;2023-02-04T11:58:56;2.30;99.90
17632;DHT22;8934;51.194;17.150;2023-02-04T12:01:44;2.20;99.90
17632;DHT22;8934;51.194;17.150;2023-02-04T12:04:32;2.20;99.90
17632;DHT22;8934;51.194;17.150;2023-02-04T12:07:25;2.40;99.90
17632;DHT22;8934;51.194;17.150;2023-02-04T12:10:21;2.50;99.90
17632;DHT22;8934;51.194;17.150;2023-02-04T12:13:15;2.50;99.90
17632;DHT22;8934;51.194;17.150;2023-02-04T12:16:06;2.50;99.90
17632;DHT22;8934;51.194;17.150;2023-02-04T12:18:53;2.30;99.90
17632;DHT22;8934;51.194;17.150;2023-02-04T12:21:41;2.20;99.90
17632;DHT22;8934;51.194;17.150;2023-02-04T12:24:29;2.10;99.90
17632;DHT22;8934;51.194;17.150;2023-02-04T12:27:16;2.10;99.90
17632;DHT22;8934;51.194;17.150;2023-02-04T12:30:05;2.20;99.90
17632;DHT22;8934;51.194;17.150;2023-02-04T12:32:53;2.20;99.90
17632;DHT22;8934;51.194;17.150;2023-02-04T12:35:42;2.40;99.90
17632;DHT22;8934;51.194;17.150;2023-02-04T12:38:29;2.50;99.90
17632;DHT22;8934;51.194;17.150;2023-02-04T12:41:16;2.60;99.90
17632;DHT22;8934;51.194;17.150;2023-02-04T12:44:05;2.50;99.90
17632;DHT22;8934;51.194;17.150;2023-02-04T12:46:52;2.40;99.90
17632;DHT22;8934;51.194;17.150;2023-02-04T12:49:42;2.50;99.90
17632;DHT22;8934;51.194;17.150;2023-02-04T12:52:29;2.80;99.90
17632;DHT22;8934;51.194;17.150;2023-02-04T12:55:17;3.00;99.90
17632;DHT22;8934;51.194;17.150;2023-02-04T12:58:06;3.10;99.90
17632;DHT22;8934;51.194;17.150;2023-02-04T13:00:53;3.40;99.90
17632;DHT22;8934;51.194;17.150;2023-02-04T13:03:41;3.60;99.90
17632;DHT22;8934;51.194;17.150;2023-02-04T13:06:30;3.50;99.90
17632;DHT22;8934;51.194;17.150;2023-02-04T13:09:18;3.20;99.90
17632;DHT22;8934;51.194;17.150;2023-02-04T13:12:05;3.00;99.90
17632;DHT22;8934;51.194;17.150;2023-02-04T13:14:53;2.80;99.90
17632;DHT22;8934;51.194;17.150;2023-02-04T13:17:41;2.70;99.90
17632;DHT22;8934;51.194;17.150;2023-02-04T13:20:29;2.50;99.90
17632;DHT22;8934;51.194;17.150;2023-02-04T13:23:17;2.50;99.90
17632;DHT22;8934;51.194;17.150;2023-02-04T13:26:05;2.40;99.90
17632;DHT22;8934;51.194;17.150;2023-02-04T13:28:54;2.40;99.90
17632;DHT22;8934;51.194;17.150;2023-02-04T13:31:41;2.30;99.90
17632;DHT22;8934;51.194;17.150;2023-02-04T13:34:29;2.30;99.90
17632;DHT22;8934;51.194;17.150;2023-02-04T13:37:16;2.20;99.90
17632;DHT22;8934;51.194;17.150;2023-02-04T13:40:06;2.00;99.90
17632;DHT22;8934;51.194;17.150;2023-02-04T13:42:54;1.80;99.90
17632;DHT22;8934;51.194;17.150;2023-02-04T13:45:42;1.80;99.90
17632;DHT22;8934;51.194;17.150;2023-02-04T13:48:33;1.70;99.90
17632;DHT22;8934;51.194;17.150;2023-02-04T13:51:21;1.70;99.90
17632;DHT22;8934;51.194;17.150;2023-02-04T13:54:09;1.70;99.90
17632;DHT22;8934;51.194;17.150;2023-02-04T13:56:58;1.70;99.90
17632;DHT22;8934;51.194;17.150;2023-02-04T13:59:46;1.50;99.90
17632;DHT22;8934;51.194;17.150;2023-02-04T14:02:34;1.30;99.90
17632;DHT22;8934;51.194;17.150;2023-02-04T14:05:21;1.10;99.90
17632;DHT22;8934;51.194;17.150;2023-02-04T14:08:09;1.00;99.90
17632;DHT22;8934;51.194;17.150;2023-02-04T14:10:57;1.00;99.90
17632;DHT22;8934;51.194;17.150;2023-02-04T14:13:46;1.10;99.90
17632;DHT22;8934;51.194;17.150;2023-02-04T14:16:34;1.30;99.90
17632;DHT22;8934;51.194;17.150;2023-02-04T14:19:23;1.50;99.90
17632;DHT22;8934;51.194;17.150;2023-02-04T14:22:12;1.60;99.90
17632;DHT22;8934;51.194;17.150;2023-02-04T14:25:00;1.60;99.90
17632;DHT22;8934;51.194;17.150;2023-02-04T14:27:48;1.60;99.90
17632;DHT22;8934;51.194;17.150;2023-02-04T14:30:37;1.60;99.90
17632;DHT22;8934;51.194;17.150;2023-02-04T14:33:25;1.50;99.90
17632;DHT22;8934;51.194;17.150;2023-02-04T14:36:12;1.50;99.90
17632;DHT22;8934;51.194;17.150;2023-02-04T14:39:00;1.10;99.90
17632;DHT22;8934;51.194;17.150;2023-02-04T14:41:47;0.80;99.90
17632;DHT22;8934;51.194;17.150;2023-02-04T14:44:35;0.50;99.90
17632;DHT22;8934;51.194;17.150;2023-02-04T14:47:24;0.40;99.90
17632;DHT22;8934;51.194;17.150;2023-02-04T14:50:14;0.30;99.90
17632;DHT22;8934;51.194;17.150;2023-02-04T14:53:02;0.30;99.90
17632;DHT22;8934;51.194;17.150;2023-02-04T14:55:50;0.40;99.90
17632;DHT22;8934;51.194;17.150;2023-02-04T14:58:38;0.40;99.90
17632;DHT22;8934;51.194;17.150;2023-02-04T15:01:26;0.40;99.90
17632;DHT22;8934;51.194;17.150;2023-02-04T15:04:15;0.30;99.90
17632;DHT22;8934;51.194;17.150;2023-02-04T15:07:03;0.30;99.90
17632;DHT22;8934;51.194;17.150;2023-02-04T15:09:51;0.40;99.90
17632;DHT22;8934;51.194;17.150;2023-02-04T15:12:39;0.40;99.90
17632;DHT22;8934;51.194;17.150;2023-02-04T15:15:26;0.50;99.90
17632;DHT22;8934;51.194;17.150;2023-02-04T15:18:14;0.50;99.90
17632;DHT22;8934;51.194;17.150;2023-02-04T15:21:03;0.50;99.90
17632;DHT22;8934;51.194;17.150;2023-02-04T15:23:51;0.50;99.90
17632;DHT22;8934;51.194;17.150;2023-02-04T15:26:39;0.50;99.90
17632;DHT22;8934;51.194;17.150;2023-02-04T15:29:27;0.60;99.90
17632;DHT22;8934;51.194;17.150;2023-02-04T15:32:15;0.50;99.90
17632;DHT22;8934;51.194;17.150;2023-02-04T15:35:05;0.60;99.90
17632;DHT22;8934;51.194;17.150;2023-02-04T15:37:55;0.60;99.90
17632;DHT22;8934;51.194;17.150;2023-02-04T15:40:42;0.60;99.90
17632;DHT22;8934;51.194;17.150;2023-02-04T15:43:30;0.70;99.90
17632;DHT22;8934;51.194;17.150;2023-02-04T15:46:17;0.70;99.90
17632;DHT22;8934;51.194;17.150;2023-02-04T15:49:05;0.70;99.90
17632;DHT22;8934;51.194;17.150;2023-02-04T15:51:54;0.60;99.90
17632;DHT22;8934;51.194;17.150;2023-02-04T15:54:44;0.60;99.90
17632;DHT22;8934;51.194;17.150;2023-02-04T15:57:31;0.50;99.90
17632;DHT22;8934;51.194;17.150;2023-02-04T16:00:19;0.50;99.90
17632;DHT22;8934;51.194;17.150;2023-02-04T16:03:07;0.30;99.90
17632;DHT22;8934;51.194;17.150;2023-02-04T16:05:55;0.30;99.90
17632;DHT22;8934;51.194;17.150;2023-02-04T16:08:42;0.20;99.90
17632;DHT22;8934;51.194;17.150;2023-02-04T16:11:31;0.10;99.90
17632;DHT22;8934;51.194;17.150;2023-02-04T16:14:20;0.20;99.90
17632;DHT22;8934;51.194;17.150;2023-02-04T16:17:08;0.10;99.90
17632;DHT22;8934;51.194;17.150;2023-02-04T16:19:56;0.00;99.90
17632;DHT22;8934;51.194;17.150;2023-02-04T16:22:44;0.00;99.90
17632;DHT22;8934;51.194;17.150;2023-02-04T16:25:31;0.00;99.90
17632;DHT22;8934;51.194;17.150;2023-02-04T16:28:21;-0.10;99.90
17632;DHT22;8934;51.194;17.150;2023-02-04T16:31:08;-0.10;99.90
17632;DHT22;8934;51.194;17.150;2023-02-04T16:33:56;-0.10;99.90
17632;DHT22;8934;51.194;17.150;2023-02-04T16:36:44;-0.10;99.90
17632;DHT22;8934;51.194;17.150;2023-02-04T16:39:31;-0.10;99.90
17632;DHT22;8934;51.194;17.150;2023-02-04T16:42:19;-0.10;99.90
17632;DHT22;8934;51.194;17.150;2023-02-04T16:45:08;-0.10;99.90
17632;DHT22;8934;51.194;17.150;2023-02-04T16:47:56;-0.10;99.90
17632;DHT22;8934;51.194;17.150;2023-02-04T16:50:44;0.00;99.90
17632;DHT22;8934;51.194;17.150;2023-02-04T16:53:31;-0.10;99.90
17632;DHT22;8934;51.194;17.150;2023-02-04T16:56:19;0.00;99.90
17632;DHT22;8934;51.194;17.150;2023-02-04T16:59:06;0.00;99.90
17632;DHT22;8934;51.194;17.150;2023-02-04T17:01:55;0.10;99.90
17632;DHT22;8934;51.194;17.150;2023-02-04T17:04:46;0.10;99.90
17632;DHT22;8934;51.194;17.150;2023-02-04T17:07:34;0.10;99.90
17632;DHT22;8934;51.194;17.150;2023-02-04T17:10:21;0.10;99.90
17632;DHT22;8934;51.194;17.150;2023-02-04T17:13:29;0.10;99.90
17632;DHT22;8934;51.194;17.150;2023-02-04T17:16:17;0.10;99.90
17632;DHT22;8934;51.194;17.150;2023-02-04T17:19:06;0.10;99.90
17632;DHT22;8934;51.194;17.150;2023-02-04T17:21:53;0.10;99.90
17632;DHT22;8934;51.194;17.150;2023-02-04T17:24:41;0.10;99.90
17632;DHT22;8934;51.194;17.150;2023-02-04T17:27:28;0.10;99.90
17632;DHT22;8934;51.194;17.150;2023-02-04T17:30:17;0.10;99.90
17632;DHT22;8934;51.194;17.150;2023-02-04T17:33:05;0.20;99.90
17632;DHT22;8934;51.194;17.150;2023-02-04T17:35:54;0.30;99.90
17632;DHT22;8934;51.194;17.150;2023-02-04T17:38:41;0.30;99.90
17632;DHT22;8934;51.194;17.150;2023-02-04T17:41:29;0.30;99.90
17632;DHT22;8934;51.194;17.150;2023-02-04T17:44:16;0.40;99.90
17632;DHT22;8934;51.194;17.150;2023-02-04T17:47:05;0.30;99.90
17632;DHT22;8934;51.194;17.150;2023-02-04T17:49:53;0.40;99.90
17632;DHT22;8934;51.194;17.150;2023-02-04T17:52:42;0.30;99.90
17632;DHT22;8934;51.194;17.150;2023-02-04T17:55:32;0.30;99.90
17632;DHT22;8934;51.194;17.150;2023-02-04T17:58:22;0.40;99.90
17632;DHT22;8934;51.194;17.150;2023-02-04T18:01:14;0.40;99.90